Time;durP1;ratioP1;P1;durP2;ratioP2;P2;SDS_P1;SDS_P2;PMS_P1;PMS_P2;Temp;Humidity;BMP_temperature;BMP_pressure;BME280_temperature;BME280_humidity;BME280_pressure;Samples;Min_cycle;Max_cycle;Signal;HPM_P1;HPM_P2
2024/02/22 20:38:22;;;;;;;6.20;1.60;;;;;;;;;;4971403;27;2827285;-31
2024/02/22 20:40:50;;;;;;;2.95;1.65;;;;;;;;;;5085535;28;20029;-31
2024/02/22 20:43:18;;;;;;;3.38;1.83;;;;;;;;;;5086665;28;20039;-31
2024/02/22 20:45:44;;;;;;;5.32;1.95;;;;;;;;;;5084455;28;20025;-31
2024/02/22 20:48:12;;;;;;;10.25;2.13;;;;;;;;;;5088589;28;20381;-31
2024/02/22 20:50:39;;;;;;;7.25;2.00;;;;;;;;;;5085333;28;20118;-30
2024/02/22 20:53:06;;;;;;;7.50;2.00;;;;;;;;;;5079292;28;20036;-31
2024/02/22 20:55:33;;;;;;;10.02;2.35;;;;;;;;;;5088019;28;20394;-30
2024/02/22 20:58:00;;;;;;;11.82;1.80;;;;;;;;;;5088280;28;20047;-33
2024/02/22 21:00:27;;;;;;;8.20;2.08;;;;;;;;;;5088556;28;20044;-31
2024/02/22 21:02:54;;;;;;;3.53;1.63;;;;;;;;;;5063324;28;20494;-31
2024/02/22 21:05:22;;;;;;;3.50;2.03;;;;;;;;;;5057245;28;20032;-31
2024/02/22 21:07:49;;;;;;;5.18;1.90;;;;;;;;;;5086391;28;20036;-31
2024/02/22 21:10:16;;;;;;;4.72;1.80;;;;;;;;;;5077873;28;20029;-32
2024/02/22 21:12:43;;;;;;;14.40;1.80;;;;;;;;;;5082492;28;20040;-31
2024/02/22 21:15:10;;;;;;;4.15;1.77;;;;;;;;;;5086340;28;20021;-32
2024/02/22 21:17:37;;;;;;;5.35;1.70;;;;;;;;;;5063103;28;20098;-31
2024/02/22 21:20:05;;;;;;;2.63;1.70;;;;;;;;;;5079071;28;20032;-31
2024/02/22 21:22:32;;;;;;;5.93;2.20;;;;;;;;;;5078970;28;20392;-31
2024/02/22 21:24:59;;;;;;;4.10;1.70;;;;;;;;;;5086663;28;20402;-31
2024/02/22 21:27:26;;;;;;;3.22;1.88;;;;;;;;;;5080381;28;20107;-36
2024/02/22 21:29:53;;;;;;;4.63;2.10;;;;;;;;;;5076525;28;20354;-35
2024/02/22 21:32:20;;;;;;;7.78;2.05;;;;;;;;;;5069569;28;20028;-31
2024/02/22 21:34:47;;;;;;;6.07;1.90;;;;;;;;;;5069553;28;20090;-31
2024/02/22 21:37:14;;;;;;;8.25;1.92;;;;;;;;;;5084753;28;20046;-31
2024/02/22 21:39:41;;;;;;;5.43;2.33;;;;;;;;;;5074045;28;20045;-31
2024/02/22 21:42:08;;;;;;;5.18;2.63;;;;;;;;;;5084130;28;20032;-31
2024/02/22 21:44:35;;;;;;;4.50;1.95;;;;;;;;;;5082295;28;20035;-32
2024/02/22 21:47:02;;;;;;;6.32;2.05;;;;;;;;;;5086649;28;20557;-32
2024/02/22 21:49:29;;;;;;;4.32;2.08;;;;;;;;;;5068393;28;20490;-32
2024/02/22 21:51:56;;;;;;;7.22;2.10;;;;;;;;;;5071454;28;20111;-31
2024/02/22 21:54:23;;;;;;;5.55;1.85;;;;;;;;;;5072356;28;20485;-31
2024/02/22 21:56:50;;;;;;;5.45;1.90;;;;;;;;;;5073669;28;20025;-31
2024/02/22 21:59:17;;;;;;;3.53;1.67;;;;;;;;;;5073927;28;20123;-31
2024/02/22 22:01:44;;;;;;;2.67;1.75;;;;;;;;;;5059777;28;20040;-31
2024/02/22 22:04:11;;;;;;;5.00;1.85;;;;;;;;;;5056142;28;20059;-31
2024/02/22 22:06:38;;;;;;;5.35;1.95;;;;;;;;;;5056937;28;20089;-32
2024/02/22 22:09:05;;;;;;;4.82;1.90;;;;;;;;;;5057623;28;20041;-31
2024/02/22 22:11:32;;;;;;;2.78;1.60;;;;;;;;;;5058298;28;20478;-31
2024/02/22 22:13:59;;;;;;;5.78;1.75;;;;;;;;;;5054818;28;20032;-31
2024/02/22 22:16:26;;;;;;;3.50;1.77;;;;;;;;;;5058275;28;20028;-33
2024/02/22 22:18:53;;;;;;;7.45;1.88;;;;;;;;;;5069069;28;20035;-32
2024/02/22 22:21:22;;;;;;;3.65;1.90;;;;;;;;;;5067551;28;20028;-31
2024/02/22 22:23:49;;;;;;;5.95;1.83;;;;;;;;;;5061467;28;20033;-31
2024/02/22 22:26:15;;;;;;;3.78;1.67;;;;;;;;;;5070035;28;20439;-31
2024/02/22 22:28:43;;;;;;;3.70;1.80;;;;;;;;;;5056784;28;20053;-31
2024/02/22 22:31:09;;;;;;;3.67;1.73;;;;;;;;;;5058682;28;20037;-31
2024/02/22 22:33:36;;;;;;;5.15;2.00;;;;;;;;;;5072483;28;20032;-32
2024/02/22 22:36:03;;;;;;;3.95;2.00;;;;;;;;;;5072778;28;20037;-31
2024/02/22 22:38:30;;;;;;;5.90;2.10;;;;;;;;;;5072304;28;20379;-31
2024/02/22 22:40:57;;;;;;;11.13;2.30;;;;;;;;;;5070966;28;20113;-33
2024/02/22 22:43:24;;;;;;;7.55;1.90;;;;;;;;;;5068074;28;20035;-31
2024/02/22 22:45:54;;;;;;;6.95;2.45;;;;;;;;;;5067478;28;20028;-33
2024/02/22 22:48:21;;;;;;;5.50;1.98;;;;;;;;;;5067455;28;20033;-33
2024/02/22 22:50:48;;;;;;;8.52;2.33;;;;;;;;;;5076354;28;20595;-33
2024/02/22 22:53:15;;;;;;;5.40;2.08;;;;;;;;;;5056701;28;20537;-34
2024/02/22 22:55:42;;;;;;;7.78;2.08;;;;;;;;;;5059592;28;20028;-35
2024/02/22 22:58:09;;;;;;;3.35;1.95;;;;;;;;;;5062917;28;20143;-33
2024/02/22 23:00:37;;;;;;;6.18;2.45;;;;;;;;;;5062879;28;20440;-33
2024/02/22 23:03:04;;;;;;;3.05;1.77;;;;;;;;;;5072469;28;20655;-33
2024/02/22 23:05:31;;;;;;;3.90;1.50;;;;;;;;;;5071272;28;20058;-33
2024/02/22 23:07:58;;;;;;;4.28;1.70;;;;;;;;;;5070579;28;20054;-37
2024/02/22 23:10:26;;;;;;;7.00;2.20;;;;;;;;;;5070690;28;20486;-35
2024/02/22 23:12:53;;;;;;;5.43;1.77;;;;;;;;;;5064428;28;20033;-33
2024/02/22 23:15:20;;;;;;;10.50;2.00;;;;;;;;;;5061860;28;20363;-32
2024/02/22 23:17:47;;;;;;;17.52;2.40;;;;;;;;;;5069930;28;20394;-32
2024/02/22 23:20:14;;;;;;;8.27;1.83;;;;;;;;;;5072191;28;20063;-36
2024/02/22 23:22:41;;;;;;;9.00;2.00;;;;;;;;;;5061374;28;20036;-32
2024/02/22 23:25:08;;;;;;;6.38;1.88;;;;;;;;;;5067373;28;20028;-33
2024/02/22 23:27:36;;;;;;;7.75;2.08;;;;;;;;;;5071464;28;20052;-33
2024/02/22 23:30:04;;;;;;;6.85;1.80;;;;;;;;;;5058787;28;20119;-33
2024/02/22 23:32:34;;;;;;;4.65;2.20;;;;;;;;;;5071875;28;20379;-32
2024/02/22 23:35:01;;;;;;;6.05;2.60;;;;;;;;;;5071374;28;20551;-33
2024/02/22 23:37:28;;;;;;;4.93;2.63;;;;;;;;;;5071062;28;20029;-33
2024/02/22 23:39:55;;;;;;;6.28;2.53;;;;;;;;;;5057721;28;20059;-33
2024/02/22 23:42:22;;;;;;;9.27;3.10;;;;;;;;;;5044057;28;20448;-32
2024/02/22 23:44:49;;;;;;;11.25;2.65;;;;;;;;;;5039258;28;20479;-33
2024/02/22 23:47:16;;;;;;;7.03;2.30;;;;;;;;;;5051902;28;20112;-33
2024/02/22 23:49:43;;;;;;;7.75;2.05;;;;;;;;;;5056743;28;20053;-32
2024/02/22 23:52:10;;;;;;;5.22;2.40;;;;;;;;;;5060447;28;20020;-32
2024/02/22 23:54:37;;;;;;;8.32;3.03;;;;;;;;;;5050719;28;20036;-33
2024/02/22 23:57:03;;;;;;;9.02;3.22;;;;;;;;;;5048489;28;20030;-34
2024/02/22 23:59:30;;;;;;;9.95;3.63;;;;;;;;;;5048794;28;20036;-33
